createdAt,value
2022-09-28T00:01:52.035Z,11.55
2022-09-28T00:04:14.654Z,11.51
2022-09-28T00:06:38.095Z,11.50
2022-09-28T00:09:01.881Z,11.50
2022-09-28T00:11:28.124Z,11.47
2022-09-28T00:13:52.934Z,11.45
2022-09-28T00:16:19.634Z,11.42
2022-09-28T00:18:42.779Z,11.39
2022-09-28T00:21:13.915Z,11.44
2022-09-28T00:23:57.739Z,11.35
2022-09-28T00:26:20.357Z,11.39
2022-09-28T00:28:42.983Z,11.34
2022-09-28T00:31:05.742Z,11.44
2022-09-28T00:33:28.333Z,11.47
2022-09-28T00:35:58.143Z,11.47
2022-09-28T00:38:20.685Z,11.42
2022-09-28T00:40:43.495Z,11.45
2022-09-28T00:43:22.759Z,11.55
2022-09-28T00:45:48.406Z,11.51
2022-09-28T00:48:11.824Z,11.58
2022-09-28T00:50:36.984Z,11.62
2022-09-28T00:53:11.460Z,11.65
2022-09-28T00:55:40.479Z,11.69
2022-09-28T00:58:05.341Z,11.59
2022-09-28T01:00:28.406Z,11.59
2022-09-28T01:02:51.450Z,11.59
2022-09-28T01:05:14.840Z,11.61
2022-09-28T01:07:38.980Z,11.55
2022-09-28T01:10:01.843Z,11.64
2022-09-28T01:12:25.184Z,11.62
2022-09-28T01:14:48.995Z,11.57
2022-09-28T01:17:25.816Z,11.65
2022-09-28T01:20:14.415Z,11.64
2022-09-28T01:23:13.027Z,11.61
2022-09-28T01:25:55.142Z,11.65
2022-09-28T01:28:20.733Z,11.61
2022-09-28T01:30:55.559Z,11.66
2022-09-28T01:33:26.720Z,11.61
2022-09-28T01:36:06.193Z,11.75
2022-09-28T01:38:41.007Z,11.69
2022-09-28T01:41:06.471Z,11.69
2022-09-28T01:43:32.424Z,11.71
2022-09-28T01:46:05.006Z,11.71
2022-09-28T01:48:41.133Z,11.59
2022-09-28T01:51:08.440Z,11.59
2022-09-28T01:53:46.252Z,11.61
2022-09-28T01:56:17.880Z,11.61
2022-09-28T01:58:46.802Z,11.68
2022-09-28T02:01:19.415Z,11.71
2022-09-28T02:03:50.752Z,11.65
2022-09-28T02:06:19.052Z,11.68
2022-09-28T02:09:07.260Z,11.72
2022-09-28T02:11:40.392Z,11.74
2022-09-28T02:14:09.801Z,11.71
2022-09-28T02:16:39.433Z,11.69
2022-09-28T02:19:03.333Z,11.68
2022-09-28T02:21:47.593Z,11.74
2022-09-28T02:24:20.649Z,11.65
2022-09-28T02:26:47.899Z,11.69
2022-09-28T02:29:10.667Z,11.71
2022-09-28T02:31:33.480Z,11.65
2022-09-28T02:33:58.059Z,11.69
2022-09-28T02:36:20.891Z,11.71
2022-09-28T02:38:43.408Z,11.68
2022-09-28T02:41:32.334Z,11.75
2022-09-28T02:43:58.292Z,11.78
2022-09-28T02:46:42.844Z,11.72
2022-09-28T02:49:21.881Z,11.69
2022-09-28T02:52:04.865Z,11.66
2022-09-28T02:54:59.696Z,11.64
2022-09-28T02:58:00.844Z,11.58
2022-09-28T03:00:24.216Z,11.58
2022-09-28T03:03:09.267Z,11.64
2022-09-28T03:05:47.743Z,11.65
2022-09-28T03:08:45.258Z,11.61
2022-09-28T03:11:16.709Z,11.65
2022-09-28T03:13:43.126Z,11.59
2022-09-28T03:16:14.840Z,11.55
2022-09-28T03:18:39.818Z,11.52
2022-09-28T03:21:04.445Z,11.48
2022-09-28T03:23:27.094Z,11.50
2022-09-28T03:25:49.550Z,11.52
2022-09-28T03:28:12.373Z,11.52
2022-09-28T03:30:36.651Z,11.58
2022-09-28T03:33:00.438Z,11.59
2022-09-28T03:35:25.620Z,11.58
2022-09-28T03:37:48.371Z,11.45
2022-09-28T03:40:10.976Z,11.45
2022-09-28T03:42:36.091Z,11.45
2022-09-28T03:44:58.701Z,11.41
2022-09-28T03:47:21.484Z,11.41
2022-09-28T03:49:45.668Z,11.50
2022-09-28T03:52:08.327Z,11.45
2022-09-28T03:54:30.815Z,11.44
2022-09-28T03:56:53.764Z,11.47
2022-09-28T03:59:16.656Z,11.51
2022-09-28T04:01:40.269Z,11.54
2022-09-28T04:04:03.202Z,11.54
2022-09-28T04:06:26.801Z,11.50
2022-09-28T04:08:49.734Z,11.55
2022-09-28T04:11:12.440Z,11.55
2022-09-28T04:13:37.100Z,11.61
2022-09-28T04:16:02.030Z,11.57
2022-09-28T04:18:30.023Z,11.61
2022-09-28T04:21:27.605Z,11.61
2022-09-28T04:23:58.160Z,11.59
2022-09-28T04:26:23.646Z,11.57
2022-09-28T04:29:06.832Z,11.51
2022-09-28T04:31:30.834Z,11.47
2022-09-28T04:33:53.839Z,11.48
2022-09-28T04:36:16.544Z,11.52
2022-09-28T04:38:52.393Z,11.54
2022-09-28T04:41:17.367Z,11.55
2022-09-28T04:43:39.912Z,11.50
2022-09-28T04:46:03.475Z,11.42
2022-09-28T04:48:32.604Z,11.35
2022-09-28T04:51:15.590Z,11.37
2022-09-28T04:53:38.484Z,11.30
2022-09-28T04:56:06.688Z,11.23
2022-09-28T04:58:30.266Z,11.14
2022-09-28T05:00:54.291Z,11.10
2022-09-28T05:03:37.082Z,10.99
2022-09-28T05:06:15.338Z,11.00
2022-09-28T05:08:40.791Z,10.80
2022-09-28T05:11:05.916Z,10.83
2022-09-28T05:13:29.521Z,10.73
2022-09-28T05:15:57.550Z,10.75
2022-09-28T05:18:23.073Z,10.73
2022-09-28T05:20:56.059Z,10.59
2022-09-28T05:23:19.244Z,10.51
2022-09-28T05:25:42.830Z,10.49
2022-09-28T05:28:12.691Z,10.46
2022-09-28T05:31:05.266Z,10.45
2022-09-28T05:33:47.840Z,10.49
2022-09-28T05:36:13.496Z,10.59
2022-09-28T05:38:38.324Z,10.66
2022-09-28T05:41:05.693Z,10.79
2022-09-28T05:43:29.236Z,11.08
2022-09-28T05:45:55.643Z,11.32
2022-09-28T05:48:19.085Z,11.58
2022-09-28T05:50:42.187Z,11.85
2022-09-28T05:53:08.293Z,11.83
2022-09-28T05:55:33.682Z,11.85
2022-09-28T05:58:05.475Z,11.86
2022-09-28T06:00:29.356Z,11.85
2022-09-28T06:03:00.244Z,11.99
2022-09-28T06:05:24.752Z,12.13
2022-09-28T06:07:48.464Z,12.31
2022-09-28T06:10:11.341Z,12.47
2022-09-28T06:12:37.996Z,12.61
2022-09-28T06:15:07.757Z,12.84
2022-09-28T06:17:30.475Z,13.12
2022-09-28T06:20:13.255Z,13.12
2022-09-28T06:23:05.155Z,13.33
2022-09-28T06:25:28.872Z,14.13
2022-09-28T06:27:59.538Z,14.44
2022-09-28T06:30:23.550Z,14.29
2022-09-28T06:32:46.252Z,14.19
2022-09-28T06:35:09.971Z,14.08
2022-09-28T06:37:33.196Z,14.01
2022-09-28T06:39:57.606Z,13.97
2022-09-28T06:42:20.614Z,14.00
2022-09-28T06:45:04.610Z,13.98
2022-09-28T06:47:53.084Z,13.94
2022-09-28T06:50:41.253Z,14.02
2022-09-28T06:53:23.784Z,14.04
2022-09-28T06:55:52.489Z,14.02
2022-09-28T06:58:17.565Z,13.88
2022-09-28T07:00:44.952Z,13.95
2022-09-28T07:03:11.962Z,14.01
2022-09-28T07:05:56.803Z,14.00
2022-09-28T07:09:00.472Z,14.05
2022-09-28T07:12:10.752Z,14.12
2022-09-28T07:14:56.176Z,14.19
2022-09-28T07:17:19.525Z,14.34
2022-09-28T07:19:44.595Z,14.40
2022-09-28T07:22:07.356Z,14.56
2022-09-28T07:24:30.356Z,14.71
2022-09-28T07:27:11.980Z,14.78
2022-09-28T07:29:53.438Z,14.88
2022-09-28T07:35:16.255Z,15.08
2022-09-28T07:37:43.118Z,15.25
2022-09-28T07:40:26.826Z,15.76
2022-09-28T07:42:49.764Z,17.34
2022-09-28T07:45:12.765Z,18.58
2022-09-28T07:47:57.150Z,19.44
2022-09-28T07:50:33.268Z,19.86
2022-09-28T07:53:03.000Z,19.70
2022-09-28T07:56:07.401Z,19.20
2022-09-28T07:58:39.802Z,18.95
2022-09-28T08:01:22.849Z,18.79
2022-09-28T08:03:48.017Z,18.40
2022-09-28T08:06:12.730Z,18.20
2022-09-28T08:08:36.099Z,17.93
2022-09-28T08:10:59.378Z,17.72
2022-09-28T08:13:41.512Z,17.36
2022-09-28T08:16:22.690Z,17.17
2022-09-28T08:19:08.514Z,16.76
2022-09-28T08:21:46.394Z,16.72
2022-09-28T08:24:09.657Z,16.73
2022-09-28T08:26:32.415Z,16.83
2022-09-28T08:28:55.014Z,16.87
2022-09-28T08:31:37.814Z,16.84
2022-09-28T08:34:13.880Z,16.91
2022-09-28T08:36:54.776Z,16.94
2022-09-28T08:39:36.949Z,16.80
2022-09-28T08:42:32.035Z,17.08
2022-09-28T08:45:35.080Z,17.03
2022-09-28T08:48:56.947Z,17.15
2022-09-28T08:51:55.216Z,17.45
2022-09-28T08:54:56.800Z,17.48
2022-09-28T08:57:37.188Z,17.55
2022-09-28T09:00:02.742Z,17.51
2022-09-28T09:02:36.166Z,17.31
2022-09-28T09:05:24.221Z,17.24
2022-09-28T09:08:25.447Z,17.30
2022-09-28T09:11:24.876Z,17.13
2022-09-28T09:14:08.999Z,17.10
2022-09-28T09:16:43.111Z,17.03
2022-09-28T09:19:26.998Z,17.17
2022-09-28T09:22:47.939Z,17.28
2022-09-28T09:25:38.762Z,17.48
2022-09-28T09:28:35.342Z,17.93
2022-09-28T09:31:22.886Z,18.20
2022-09-28T09:34:17.932Z,18.07
2022-09-28T09:37:04.254Z,18.09
2022-09-28T09:40:04.838Z,18.27
2022-09-28T09:43:31.725Z,18.51
2022-09-28T09:46:48.394Z,18.58
2022-09-28T09:49:23.330Z,18.44
2022-09-28T09:51:59.631Z,18.13
2022-09-28T09:54:30.281Z,18.20
2022-09-28T09:56:56.824Z,18.49
2022-09-28T09:59:43.110Z,18.77
2022-09-28T10:02:35.157Z,19.20
2022-09-28T10:05:11.009Z,19.24
2022-09-28T10:07:51.052Z,19.46
2022-09-28T10:10:35.807Z,19.47
2022-09-28T10:13:09.215Z,19.64
2022-09-28T10:15:35.451Z,19.74
2022-09-28T10:18:21.642Z,19.57
2022-09-28T10:21:03.464Z,19.31
2022-09-28T10:23:36.759Z,19.07
2022-09-28T10:26:07.467Z,19.04
2022-09-28T10:28:40.858Z,19.23
2022-09-28T10:31:42.505Z,19.28
2022-09-28T10:34:40.347Z,19.27
2022-09-28T10:37:13.022Z,19.26
2022-09-28T10:39:56.329Z,19.51
2022-09-28T10:42:27.213Z,19.24
2022-09-28T10:44:59.349Z,19.14
2022-09-28T10:47:32.827Z,19.14
2022-09-28T10:49:56.144Z,19.16
2022-09-28T10:52:40.453Z,19.38
2022-09-28T10:55:33.037Z,19.10
2022-09-28T10:57:56.515Z,18.98
2022-09-28T11:00:33.440Z,18.55
2022-09-28T11:03:52.027Z,18.61
2022-09-28T11:06:14.865Z,19.04
2022-09-28T11:08:39.616Z,19.34
2022-09-28T11:11:13.036Z,19.22
2022-09-28T11:13:41.434Z,19.26
2022-09-28T11:16:06.724Z,19.04
2022-09-28T11:18:34.696Z,18.77
2022-09-28T11:21:29.763Z,18.57
2022-09-28T11:24:02.102Z,18.64
2022-09-28T11:26:25.859Z,18.66
2022-09-28T11:28:53.244Z,18.84
2022-09-28T11:31:30.257Z,18.91
2022-09-28T11:34:27.786Z,18.72
2022-09-28T11:37:11.883Z,18.92
2022-09-28T11:39:54.474Z,18.65
2022-09-28T11:43:01.950Z,18.52
2022-09-28T11:45:49.654Z,18.34
2022-09-28T11:48:17.081Z,18.28
2022-09-28T11:50:47.334Z,18.23
2022-09-28T11:53:33.000Z,18.11
2022-09-28T11:56:08.915Z,18.10
2022-09-28T11:58:44.809Z,18.11
2022-09-28T12:01:36.145Z,17.94
2022-09-28T12:04:33.877Z,17.86
2022-09-28T12:07:03.746Z,17.71
2022-09-28T12:09:33.408Z,17.48
2022-09-28T12:12:24.116Z,17.38
2022-09-28T12:14:55.708Z,17.23
2022-09-28T12:18:00.891Z,17.28
2022-09-28T12:20:30.549Z,17.14
2022-09-28T12:23:21.236Z,17.00
2022-09-28T12:25:58.007Z,17.20
2022-09-28T12:28:41.426Z,17.30
2022-09-28T12:31:16.091Z,17.27
2022-09-28T12:33:46.431Z,17.52
2022-09-28T12:36:18.040Z,17.73
2022-09-28T12:39:17.530Z,17.90
2022-09-28T12:42:15.034Z,17.96
2022-09-28T12:45:02.426Z,17.93
2022-09-28T12:47:32.692Z,17.65
2022-09-28T12:53:31.147Z,17.66
2022-09-28T12:56:21.620Z,17.79
2022-09-28T12:58:59.965Z,17.85
2022-09-28T13:01:28.673Z,18.03
2022-09-28T13:04:09.223Z,17.91
2022-09-28T13:06:46.996Z,17.87
2022-09-28T13:09:19.886Z,17.73
2022-09-28T13:12:09.729Z,17.66
2022-09-28T13:15:01.932Z,17.68
2022-09-28T13:17:44.561Z,17.78
2022-09-28T13:20:13.157Z,17.76
2022-09-28T13:23:17.562Z,17.85
2022-09-28T13:25:45.130Z,17.89
2022-09-28T13:28:08.132Z,17.89
2022-09-28T13:30:34.958Z,17.76
2022-09-28T13:33:01.061Z,17.61
2022-09-28T13:35:24.191Z,17.51
2022-09-28T13:37:48.690Z,17.56
2022-09-28T13:40:11.675Z,17.49
2022-09-28T13:42:46.261Z,17.45
2022-09-28T13:45:20.916Z,17.46
2022-09-28T13:47:52.807Z,17.59
2022-09-28T13:50:43.771Z,17.90
2022-09-28T13:53:32.698Z,18.03
2022-09-28T13:56:36.036Z,18.11
2022-09-28T13:59:01.861Z,18.21
2022-09-28T14:01:40.188Z,18.17
2022-09-28T14:04:20.959Z,18.28
2022-09-28T14:06:55.784Z,18.33
2022-09-28T14:09:40.193Z,18.43
2022-09-28T14:12:23.667Z,18.37
2022-09-28T14:14:48.624Z,18.27
2022-09-28T14:17:26.125Z,18.13
2022-09-28T14:20:14.175Z,18.03
2022-09-28T14:22:56.255Z,17.79
2022-09-28T14:25:23.718Z,17.87
2022-09-28T14:28:01.349Z,17.72
2022-09-28T14:30:30.019Z,17.85
2022-09-28T14:32:56.532Z,17.90
2022-09-28T14:35:40.679Z,17.82
2022-09-28T14:38:38.199Z,17.76
2022-09-28T14:41:11.518Z,17.73
2022-09-28T14:43:34.439Z,17.76
2022-09-28T14:46:13.185Z,17.85
2022-09-28T14:48:50.966Z,17.76
2022-09-28T14:51:31.748Z,17.78
2022-09-28T14:54:21.694Z,17.62
2022-09-28T14:56:53.325Z,17.59
2022-09-28T14:59:25.115Z,17.58
2022-09-28T15:01:53.999Z,17.49
2022-09-28T15:04:17.401Z,17.30
2022-09-28T15:06:51.340Z,17.15
2022-09-28T15:09:35.117Z,16.90
2022-09-28T15:12:18.038Z,16.86
2022-09-28T15:15:17.442Z,16.86
2022-09-28T15:17:40.651Z,16.88
2022-09-28T15:20:24.423Z,16.83
2022-09-28T15:22:48.969Z,16.86
2022-09-28T15:25:31.952Z,16.83
2022-09-28T15:28:03.452Z,16.81
2022-09-28T15:30:31.996Z,16.83
2022-09-28T15:32:56.962Z,16.80
2022-09-28T15:35:22.542Z,16.79
2022-09-28T15:37:45.893Z,16.75
2022-09-28T15:40:15.397Z,16.73
2022-09-28T15:42:38.285Z,16.66
2022-09-28T15:45:26.838Z,16.72
2022-09-28T15:48:15.790Z,16.72
2022-09-28T15:50:44.608Z,16.65
2022-09-28T15:53:14.991Z,16.51
2022-09-28T15:55:41.664Z,16.45
2022-09-28T15:58:22.868Z,16.26
2022-09-28T16:00:48.754Z,16.24
2022-09-28T16:03:11.570Z,16.15
2022-09-28T16:05:49.476Z,16.14
2022-09-28T16:08:36.884Z,16.17
2022-09-28T16:11:20.819Z,16.22
2022-09-28T16:14:06.245Z,16.14
2022-09-28T16:16:48.421Z,15.96
2022-09-28T16:19:36.188Z,15.89
2022-09-28T16:22:03.912Z,15.77
2022-09-28T16:24:36.083Z,15.83
2022-09-28T16:27:05.233Z,15.83
2022-09-28T16:29:40.312Z,15.74
2022-09-28T16:32:27.523Z,15.70
2022-09-28T16:35:12.642Z,15.62
2022-09-28T16:37:35.971Z,15.52
2022-09-28T16:39:58.702Z,15.50
2022-09-28T16:42:21.434Z,15.53
2022-09-28T16:44:45.261Z,15.54
2022-09-28T16:47:07.978Z,15.54
2022-09-28T16:49:33.475Z,15.66
2022-09-28T16:51:56.147Z,15.74
2022-09-28T16:54:39.963Z,15.66
2022-09-28T16:57:05.028Z,15.57
2022-09-28T16:59:28.681Z,15.59
2022-09-28T17:01:51.531Z,15.56
2022-09-28T17:04:14.148Z,15.53
2022-09-28T17:06:37.209Z,15.67
2022-09-28T17:09:00.171Z,15.74
2022-09-28T17:11:24.926Z,15.59
2022-09-28T17:13:47.974Z,15.59
2022-09-28T17:16:28.255Z,15.70
2022-09-28T17:19:03.091Z,15.60
2022-09-28T17:21:26.193Z,15.56
2022-09-28T17:23:50.375Z,15.69
2022-09-28T17:26:33.495Z,15.74
2022-09-28T17:28:58.879Z,15.54
2022-09-28T17:31:21.542Z,15.62
2022-09-28T17:33:44.236Z,15.56
2022-09-28T17:36:07.292Z,15.57
2022-09-28T17:38:30.173Z,15.60
2022-09-28T17:40:52.909Z,15.60
2022-09-28T17:43:15.565Z,15.53
2022-09-28T17:45:41.120Z,15.52
2022-09-28T17:48:03.874Z,15.47
2022-09-28T17:50:29.838Z,15.43
2022-09-28T17:52:53.178Z,15.43
2022-09-28T17:55:15.760Z,15.39
2022-09-28T17:57:38.543Z,15.38
2022-09-28T18:00:01.379Z,15.38
2022-09-28T18:02:27.036Z,15.25
2022-09-28T18:04:52.224Z,15.18
2022-09-28T18:07:15.200Z,15.04
2022-09-28T18:09:37.863Z,15.01
2022-09-28T18:12:04.177Z,14.97
2022-09-28T18:14:27.134Z,14.92
2022-09-28T18:16:49.778Z,14.91
2022-09-28T18:19:15.240Z,14.91
2022-09-28T18:21:37.899Z,14.84
2022-09-28T18:24:00.653Z,14.88
2022-09-28T18:26:23.484Z,14.87
2022-09-28T18:29:06.546Z,14.78
2022-09-28T18:31:29.398Z,14.78
2022-09-28T18:34:00.046Z,14.77
2022-09-28T18:36:28.450Z,14.74
2022-09-28T18:38:51.277Z,14.67
2022-09-28T18:41:15.804Z,14.70
2022-09-28T18:43:38.591Z,14.57
2022-09-28T18:46:07.442Z,14.59
2022-09-28T18:48:29.994Z,14.66
2022-09-28T18:50:52.654Z,14.67
2022-09-28T18:53:15.490Z,14.56
2022-09-28T18:55:42.532Z,14.53
2022-09-28T18:58:06.569Z,14.56
2022-09-28T19:00:29.433Z,14.49
2022-09-28T19:02:52.224Z,14.51
2022-09-28T19:05:14.930Z,14.59
2022-09-28T19:07:37.510Z,14.56
2022-09-28T19:10:00.167Z,14.51
2022-09-28T19:12:23.845Z,14.55
2022-09-28T19:14:46.479Z,14.55
2022-09-28T19:17:10.034Z,14.46
2022-09-28T19:19:32.980Z,14.49
2022-09-28T19:21:56.303Z,14.36
2022-09-28T19:24:19.595Z,14.34
2022-09-28T19:26:42.714Z,14.32
2022-09-28T19:29:05.283Z,14.22
2022-09-28T19:31:29.276Z,14.34
2022-09-28T19:33:51.803Z,14.37
2022-09-28T19:36:18.250Z,14.29
2022-09-28T19:38:41.277Z,14.30
2022-09-28T19:41:40.888Z,14.19
2022-09-28T19:44:06.538Z,14.08
2022-09-28T19:46:31.227Z,14.06
2022-09-28T19:48:54.702Z,14.20
2022-09-28T19:51:17.551Z,14.19
2022-09-28T19:53:41.095Z,14.15
2022-09-28T19:56:05.605Z,14.16
2022-09-28T19:58:30.671Z,14.19
2022-09-28T20:00:54.420Z,14.33
2022-09-28T20:03:18.639Z,14.30
2022-09-28T20:05:42.428Z,14.36
2022-09-28T20:08:04.972Z,14.33
2022-09-28T20:10:27.488Z,14.23
2022-09-28T20:12:51.656Z,14.11
2022-09-28T20:15:14.672Z,14.04
2022-09-28T20:17:37.884Z,13.84
2022-09-28T20:20:00.771Z,13.89
2022-09-28T20:22:23.703Z,13.94
2022-09-28T20:24:46.641Z,13.92
2022-09-28T20:27:09.200Z,13.82
2022-09-28T20:29:33.203Z,13.68
2022-09-28T20:31:56.718Z,13.58
2022-09-28T20:34:19.349Z,13.61
2022-09-28T20:36:44.706Z,13.58
2022-09-28T20:39:07.170Z,13.51
2022-09-28T20:41:34.747Z,13.47
2022-09-28T20:44:04.117Z,13.55
2022-09-28T20:46:28.124Z,13.54
2022-09-28T20:48:51.369Z,13.42
2022-09-28T20:51:16.088Z,13.37
2022-09-28T20:53:40.040Z,13.39
2022-09-28T20:56:06.294Z,13.34
2022-09-28T20:58:29.039Z,13.53
2022-09-28T21:00:51.677Z,13.33
2022-09-28T21:03:14.185Z,13.27
2022-09-28T21:05:36.831Z,13.27
2022-09-28T21:07:59.262Z,13.27
2022-09-28T21:10:22.322Z,13.22
2022-09-28T21:12:50.258Z,13.17
2022-09-28T21:15:12.907Z,13.17
2022-09-28T21:17:35.848Z,13.13
2022-09-28T21:19:58.381Z,13.16
2022-09-28T21:22:20.953Z,13.22
2022-09-28T21:24:43.500Z,13.12
2022-09-28T21:27:06.294Z,13.12
2022-09-28T21:29:28.949Z,13.15
2022-09-28T21:31:51.369Z,13.13
2022-09-28T21:34:19.427Z,13.20
2022-09-28T21:36:43.592Z,13.27
2022-09-28T21:39:10.193Z,13.37
2022-09-28T21:41:33.073Z,13.43
2022-09-28T21:43:55.808Z,13.37
2022-09-28T21:46:18.553Z,13.53
2022-09-28T21:48:41.379Z,13.64
2022-09-28T21:51:06.358Z,13.65
2022-09-28T21:53:31.756Z,13.71
2022-09-28T21:55:55.796Z,13.73
2022-09-28T21:58:23.252Z,13.78
2022-09-28T22:00:45.721Z,13.81
2022-09-28T22:03:08.311Z,13.85
2022-09-28T22:05:30.928Z,13.92
2022-09-28T22:07:53.969Z,13.92
2022-09-28T22:10:16.432Z,13.94
2022-09-28T22:12:39.072Z,13.75
2022-09-28T22:15:02.035Z,13.74
2022-09-28T22:17:24.948Z,13.91
2022-09-28T22:19:47.536Z,14.01
2022-09-28T22:22:09.964Z,14.15
2022-09-28T22:24:32.501Z,14.08
2022-09-28T22:26:54.995Z,14.02
2022-09-28T22:29:18.134Z,14.04
2022-09-28T22:31:41.155Z,14.08
2022-09-28T22:34:04.656Z,14.05
2022-09-28T22:36:28.066Z,14.08
2022-09-28T22:38:50.561Z,14.08
2022-09-28T22:41:18.745Z,14.00
2022-09-28T22:43:42.892Z,14.12
2022-09-28T22:46:11.103Z,14.05
2022-09-28T22:48:34.830Z,14.15
2022-09-28T22:50:57.388Z,14.18
2022-09-28T22:53:19.842Z,14.15
2022-09-28T22:55:42.530Z,14.13
2022-09-28T22:58:05.056Z,14.16
2022-09-28T23:00:27.996Z,14.12
2022-09-28T23:02:50.504Z,14.15
2022-09-28T23:05:13.542Z,14.16
2022-09-28T23:07:36.156Z,14.23
2022-09-28T23:10:00.662Z,14.16
2022-09-28T23:12:23.125Z,13.94
2022-09-28T23:14:45.643Z,13.74
2022-09-28T23:17:08.143Z,13.61
2022-09-28T23:19:30.875Z,13.54
2022-09-28T23:21:54.062Z,13.51
2022-09-28T23:24:16.869Z,13.50
2022-09-28T23:26:39.419Z,13.46
2022-09-28T23:29:01.994Z,13.43
2022-09-28T23:31:34.668Z,13.42
2022-09-28T23:34:05.150Z,13.46
2022-09-28T23:36:28.533Z,13.39
2022-09-28T23:38:51.086Z,13.46
2022-09-28T23:41:13.698Z,13.50
2022-09-28T23:43:36.351Z,13.46
2022-09-28T23:45:58.874Z,13.63
2022-09-28T23:48:21.796Z,13.81
2022-09-28T23:50:45.086Z,13.75
2022-09-28T23:53:07.817Z,13.77
2022-09-28T23:55:30.450Z,13.75
2022-09-28T23:57:55.641Z,13.88
